createdAt,value
2023-03-15T00:00:55.509Z,5.20
2023-03-15T00:03:26.756Z,5.03
2023-03-15T00:05:53.626Z,4.95
2023-03-15T00:08:21.891Z,5.07
2023-03-15T00:10:49.211Z,5.45
2023-03-15T00:13:17.819Z,5.53
2023-03-15T00:15:46.984Z,4.75
2023-03-15T00:18:14.079Z,5.53
2023-03-15T00:20:41.027Z,5.38
2023-03-15T00:23:08.361Z,4.97
2023-03-15T00:25:35.360Z,4.82
2023-03-15T00:28:02.171Z,4.55
2023-03-15T00:30:29.117Z,5.38
2023-03-15T00:32:55.991Z,5.43
2023-03-15T00:35:24.553Z,4.80
2023-03-15T00:37:56.117Z,4.78
2023-03-15T00:40:24.292Z,5.20
2023-03-15T00:42:51.603Z,5.20
2023-03-15T00:45:20.563Z,5.15
2023-03-15T00:47:54.540Z,5.13
2023-03-15T00:50:23.116Z,7.15
2023-03-15T00:52:50.559Z,4.57
2023-03-15T00:55:20.085Z,4.75
2023-03-15T00:57:50.343Z,4.43
2023-03-15T01:00:24.764Z,5.28
2023-03-15T01:02:52.955Z,4.63
2023-03-15T01:05:20.195Z,4.78
2023-03-15T01:07:47.226Z,4.72
2023-03-15T01:10:15.635Z,4.82
2023-03-15T01:12:42.867Z,3.95
2023-03-15T01:15:12.013Z,5.03
2023-03-15T01:17:39.086Z,5.57
2023-03-15T01:20:07.029Z,4.93
2023-03-15T01:22:33.805Z,4.50
2023-03-15T01:25:00.582Z,5.50
2023-03-15T01:27:27.758Z,5.25
2023-03-15T01:29:54.572Z,5.35
2023-03-15T01:32:21.420Z,5.32
2023-03-15T01:34:48.513Z,5.45
2023-03-15T01:37:15.389Z,5.90
2023-03-15T01:39:43.018Z,5.43
2023-03-15T01:42:11.030Z,6.32
2023-03-15T01:45:01.043Z,5.90
2023-03-15T01:47:28.440Z,5.78
2023-03-15T01:50:08.707Z,6.63
2023-03-15T01:52:39.366Z,5.05
2023-03-15T01:55:16.689Z,6.53
2023-03-15T01:57:56.128Z,5.63
2023-03-15T02:00:23.196Z,6.30
2023-03-15T02:02:52.378Z,5.90
2023-03-15T02:05:24.176Z,6.38
2023-03-15T02:07:54.716Z,5.55
2023-03-15T02:10:37.099Z,6.40
2023-03-15T02:13:04.979Z,6.32
2023-03-15T02:15:32.236Z,6.47
2023-03-15T02:17:59.076Z,6.43
2023-03-15T02:20:57.462Z,5.97
2023-03-15T02:23:25.070Z,6.70
2023-03-15T02:26:19.857Z,6.85
2023-03-15T02:28:47.158Z,7.03
2023-03-15T02:31:15.032Z,6.65
2023-03-15T02:33:43.908Z,6.78
2023-03-15T02:36:20.085Z,7.05
2023-03-15T02:38:47.608Z,6.40
2023-03-15T02:41:18.234Z,6.75
2023-03-15T02:43:47.450Z,6.97
2023-03-15T02:46:18.488Z,6.40
2023-03-15T02:48:47.427Z,6.95
2023-03-15T02:51:20.874Z,6.43
2023-03-15T02:53:48.152Z,6.07
2023-03-15T02:56:15.284Z,6.63
2023-03-15T02:58:45.725Z,7.28
2023-03-15T03:01:13.823Z,6.65
2023-03-15T03:03:42.554Z,6.38
2023-03-15T03:06:13.361Z,7.00
2023-03-15T03:08:40.253Z,7.55
2023-03-15T03:11:07.793Z,7.30
2023-03-15T03:13:34.537Z,7.72
2023-03-15T03:16:01.329Z,6.93
2023-03-15T03:18:29.576Z,6.72
2023-03-15T03:20:58.104Z,7.40
2023-03-15T03:23:27.413Z,7.18
2023-03-15T03:25:55.836Z,7.90
2023-03-15T03:28:26.675Z,7.88
2023-03-15T03:30:54.793Z,8.48
2023-03-15T03:33:22.928Z,7.30
2023-03-15T03:35:50.100Z,7.53
2023-03-15T03:38:17.138Z,7.63
2023-03-15T03:40:45.749Z,7.72
2023-03-15T03:43:12.688Z,7.40
2023-03-15T03:45:39.442Z,7.18
2023-03-15T03:48:06.427Z,7.78
2023-03-15T03:50:33.303Z,8.02
2023-03-15T03:53:00.124Z,7.88
2023-03-15T03:55:26.931Z,7.97
2023-03-15T03:57:53.700Z,8.15
2023-03-15T04:00:21.555Z,7.97
2023-03-15T04:02:48.536Z,8.55
2023-03-15T04:05:15.507Z,7.80
2023-03-15T04:07:42.274Z,8.02
2023-03-15T04:10:09.873Z,8.13
2023-03-15T04:12:36.655Z,7.45
2023-03-15T04:15:03.672Z,8.60
2023-03-15T04:17:30.499Z,8.20
2023-03-15T04:19:58.058Z,9.00
2023-03-15T04:22:24.939Z,10.30
2023-03-15T04:24:51.680Z,9.30
2023-03-15T04:27:18.456Z,9.80
2023-03-15T04:29:45.262Z,8.80
2023-03-15T04:32:12.142Z,8.40
2023-03-15T04:34:39.014Z,8.32
2023-03-15T04:37:06.327Z,8.75
2023-03-15T04:39:33.248Z,8.82
2023-03-15T04:42:00.000Z,8.20
2023-03-15T04:44:29.037Z,8.27
2023-03-15T04:46:56.231Z,8.18
2023-03-15T04:49:23.239Z,7.68
2023-03-15T04:51:49.998Z,8.00
2023-03-15T04:54:16.824Z,7.28
2023-03-15T04:56:43.649Z,7.50
2023-03-15T04:59:11.116Z,6.88
2023-03-15T05:01:38.049Z,6.30
2023-03-15T05:04:05.073Z,6.50
2023-03-15T05:06:32.000Z,5.72
2023-03-15T05:08:58.940Z,6.07
2023-03-15T05:11:25.855Z,6.20
2023-03-15T05:13:53.484Z,6.40
2023-03-15T05:16:20.404Z,6.35
2023-03-15T05:18:47.171Z,6.60
2023-03-15T05:21:14.008Z,6.78
2023-03-15T05:23:41.498Z,6.88
2023-03-15T05:26:08.291Z,6.50
2023-03-15T05:28:35.069Z,6.75
2023-03-15T05:31:02.675Z,7.53
2023-03-15T05:33:29.902Z,7.18
2023-03-15T05:35:56.917Z,7.25
2023-03-15T05:38:26.957Z,7.97
2023-03-15T05:40:54.654Z,7.60
2023-03-15T05:43:22.044Z,6.85
2023-03-15T05:45:49.186Z,7.13
2023-03-15T05:48:16.881Z,7.25
2023-03-15T05:50:43.861Z,7.70
2023-03-15T05:53:11.101Z,8.27
2023-03-15T05:55:38.613Z,7.55
2023-03-15T05:58:05.457Z,7.45
2023-03-15T06:00:32.410Z,8.35
2023-03-15T06:02:59.511Z,7.80
2023-03-15T06:05:26.992Z,9.77
2023-03-15T06:07:53.845Z,7.53
2023-03-15T06:10:20.631Z,7.05
2023-03-15T06:12:47.441Z,7.57
2023-03-15T06:15:14.179Z,8.38
2023-03-15T06:17:40.955Z,7.55
2023-03-15T06:20:08.202Z,8.93
2023-03-15T06:22:34.950Z,7.82
2023-03-15T06:25:03.568Z,6.50
2023-03-15T06:27:30.450Z,7.90
2023-03-15T06:29:58.465Z,7.20
2023-03-15T06:32:25.763Z,6.57
2023-03-15T06:34:52.699Z,6.47
2023-03-15T06:37:29.061Z,6.93
2023-03-15T06:40:02.656Z,6.35
2023-03-15T06:42:29.415Z,7.05
2023-03-15T06:44:56.479Z,7.78
2023-03-15T06:47:23.412Z,7.68
2023-03-15T06:49:50.739Z,6.88
2023-03-15T06:52:18.401Z,6.72
2023-03-15T06:54:45.424Z,7.53
2023-03-15T06:57:12.595Z,7.55
2023-03-15T06:59:39.402Z,6.43
2023-03-15T07:02:07.164Z,6.95
2023-03-15T07:04:33.858Z,7.07
2023-03-15T07:07:01.273Z,7.10
2023-03-15T07:09:28.196Z,7.80
2023-03-15T07:11:54.957Z,7.43
2023-03-15T07:14:22.293Z,7.18
2023-03-15T07:16:49.229Z,7.50
2023-03-15T07:19:16.376Z,7.20
2023-03-15T07:21:45.640Z,7.57
2023-03-15T07:24:12.598Z,7.60
2023-03-15T07:26:39.493Z,7.15
2023-03-15T07:29:06.387Z,6.40
2023-03-15T07:31:33.229Z,7.45
2023-03-15T07:34:00.042Z,7.15
2023-03-15T07:36:26.831Z,7.18
2023-03-15T07:38:53.834Z,7.40
2023-03-15T07:41:23.659Z,6.53
2023-03-15T07:43:50.461Z,7.07
2023-03-15T07:46:17.406Z,7.35
2023-03-15T07:48:44.226Z,6.65
2023-03-15T07:51:19.854Z,6.90
2023-03-15T07:53:46.607Z,7.22
2023-03-15T07:56:13.513Z,7.68
2023-03-15T07:58:40.258Z,8.18
2023-03-15T08:01:07.134Z,7.40
2023-03-15T08:03:33.910Z,7.97
2023-03-15T08:06:00.721Z,8.68
2023-03-15T08:08:27.596Z,8.43
2023-03-15T08:10:56.330Z,8.15
2023-03-15T08:13:24.332Z,8.48
2023-03-15T08:15:51.486Z,9.05
2023-03-15T08:18:18.305Z,9.50
2023-03-15T08:20:45.110Z,9.13
2023-03-15T08:23:16.532Z,9.18
2023-03-15T08:25:44.560Z,9.73
2023-03-15T08:28:12.002Z,8.93
2023-03-15T08:30:39.086Z,8.88
2023-03-15T08:33:07.624Z,9.65
2023-03-15T08:35:34.632Z,9.35
2023-03-15T08:38:02.910Z,8.77
2023-03-15T08:40:31.829Z,8.52
2023-03-15T08:42:59.575Z,8.60
2023-03-15T08:45:27.312Z,8.20
2023-03-15T08:48:00.684Z,9.20
2023-03-15T08:50:28.558Z,8.63
2023-03-15T08:52:55.660Z,8.68
2023-03-15T08:55:22.591Z,8.95
2023-03-15T08:57:51.928Z,8.57
2023-03-15T09:00:22.951Z,7.78
2023-03-15T09:02:52.277Z,7.95
2023-03-15T09:05:20.452Z,7.22
2023-03-15T09:07:48.106Z,7.88
2023-03-15T09:10:16.673Z,8.25
2023-03-15T09:12:45.424Z,8.23
2023-03-15T09:15:12.532Z,7.22
2023-03-15T09:17:40.499Z,7.47
2023-03-15T09:20:14.473Z,8.25
2023-03-15T09:22:49.457Z,7.75
2023-03-15T09:25:16.287Z,8.10
2023-03-15T09:27:43.087Z,9.02
2023-03-15T09:30:11.098Z,8.63
2023-03-15T09:32:37.989Z,8.13
2023-03-15T09:35:07.576Z,8.30
2023-03-15T09:37:35.059Z,8.25
2023-03-15T09:40:02.116Z,7.53
2023-03-15T09:42:40.781Z,8.20
2023-03-15T09:45:19.384Z,8.95
2023-03-15T09:48:10.768Z,8.05
2023-03-15T09:51:05.615Z,7.57
2023-03-15T09:53:50.615Z,8.13
2023-03-15T09:56:29.389Z,8.48
2023-03-15T09:58:59.928Z,9.40
2023-03-15T10:01:38.309Z,8.95
2023-03-15T10:04:08.726Z,9.10
2023-03-15T10:06:38.908Z,9.70
2023-03-15T10:09:15.968Z,9.68
2023-03-15T10:11:49.748Z,9.57
2023-03-15T10:14:47.374Z,9.93
2023-03-15T10:17:21.137Z,9.82
2023-03-15T10:20:01.454Z,9.23
2023-03-15T10:22:47.265Z,9.45
2023-03-15T10:25:23.904Z,9.25
2023-03-15T10:28:04.137Z,9.23
2023-03-15T10:30:34.276Z,8.77
2023-03-15T10:33:20.379Z,9.15
2023-03-15T10:35:47.433Z,8.13
2023-03-15T10:38:21.899Z,9.48
2023-03-15T10:40:51.463Z,9.75
2023-03-15T10:43:23.700Z,9.52
2023-03-15T10:46:13.356Z,9.15
2023-03-15T10:48:58.634Z,8.65
2023-03-15T10:51:31.522Z,9.38
2023-03-15T10:54:21.039Z,9.35
2023-03-15T10:57:29.238Z,9.63
2023-03-15T10:59:59.987Z,8.48
2023-03-15T11:02:26.803Z,9.30
2023-03-15T11:05:12.389Z,9.70
2023-03-15T11:07:57.440Z,10.23
2023-03-15T11:10:26.740Z,10.98
2023-03-15T11:13:12.197Z,9.05
2023-03-15T11:15:41.114Z,9.07
2023-03-15T11:18:18.762Z,9.02
2023-03-15T11:20:45.760Z,8.60
2023-03-15T11:23:36.528Z,8.90
2023-03-15T11:26:04.243Z,9.02
2023-03-15T11:28:32.977Z,9.00
2023-03-15T11:31:00.981Z,8.43
2023-03-15T11:33:53.648Z,8.77
2023-03-15T11:36:23.315Z,8.05
2023-03-15T11:38:50.526Z,7.95
2023-03-15T11:41:41.963Z,8.52
2023-03-15T11:44:20.781Z,8.43
2023-03-15T11:46:59.100Z,7.70
2023-03-15T11:49:51.565Z,7.97
2023-03-15T11:52:21.566Z,7.95
2023-03-15T11:54:48.641Z,8.23
2023-03-15T11:57:42.178Z,6.63
2023-03-15T12:00:35.787Z,7.90
2023-03-15T12:03:28.249Z,8.73
2023-03-15T12:06:01.238Z,7.82
2023-03-15T12:08:41.762Z,8.60
2023-03-15T12:11:28.749Z,8.55
2023-03-15T12:14:01.682Z,9.00
2023-03-15T12:17:14.568Z,9.07
2023-03-15T12:19:41.345Z,8.82
2023-03-15T12:22:16.166Z,8.93
2023-03-15T12:24:45.609Z,9.35
2023-03-15T12:27:18.435Z,8.75
2023-03-15T12:29:47.173Z,8.73
2023-03-15T12:32:18.555Z,9.23
2023-03-15T12:34:49.486Z,10.38
2023-03-15T12:37:37.882Z,10.63
2023-03-15T12:40:20.381Z,9.40
2023-03-15T12:42:47.116Z,9.23
2023-03-15T12:45:16.892Z,9.43
2023-03-15T12:47:52.997Z,10.10
2023-03-15T12:50:50.858Z,8.85
2023-03-15T12:53:37.046Z,9.63
2023-03-15T12:56:21.578Z,8.50
2023-03-15T12:58:54.622Z,8.60
2023-03-15T13:01:25.845Z,8.85
2023-03-15T13:03:58.426Z,8.75
2023-03-15T13:06:49.414Z,9.32
2023-03-15T13:09:42.118Z,7.75
2023-03-15T13:12:19.211Z,8.68
2023-03-15T13:14:58.595Z,7.88
2023-03-15T13:17:53.603Z,8.00
2023-03-15T13:20:40.308Z,7.95
2023-03-15T13:23:26.586Z,7.68
2023-03-15T13:26:33.313Z,7.00
2023-03-15T13:29:01.442Z,7.82
2023-03-15T13:31:31.689Z,6.68
2023-03-15T13:34:14.113Z,8.20
2023-03-15T13:36:57.467Z,7.72
2023-03-15T13:39:27.646Z,7.63
2023-03-15T13:42:23.832Z,6.95
2023-03-15T13:45:09.071Z,7.13
2023-03-15T13:47:35.973Z,6.38
2023-03-15T13:50:07.199Z,6.68
2023-03-15T13:52:34.077Z,6.47
2023-03-15T13:55:02.180Z,6.68
2023-03-15T13:57:29.854Z,8.25
2023-03-15T14:00:17.175Z,7.20
2023-03-15T14:02:46.435Z,6.97
2023-03-15T14:05:20.020Z,6.40
2023-03-15T14:07:48.904Z,6.50
2023-03-15T14:10:23.539Z,6.82
2023-03-15T14:12:51.935Z,6.97
2023-03-15T14:15:25.378Z,6.88
2023-03-15T14:18:02.188Z,5.93
2023-03-15T14:20:33.665Z,6.75
2023-03-15T14:23:01.849Z,6.40
2023-03-15T14:25:29.466Z,6.78
2023-03-15T14:28:01.339Z,6.93
2023-03-15T14:30:30.404Z,7.13
2023-03-15T14:33:00.121Z,7.30
2023-03-15T14:35:32.547Z,7.85
2023-03-15T14:38:24.695Z,7.55
2023-03-15T14:40:53.473Z,8.35
2023-03-15T14:43:20.307Z,7.45
2023-03-15T14:45:48.758Z,8.60
2023-03-15T14:48:32.020Z,7.78
2023-03-15T14:50:58.931Z,8.43
2023-03-15T14:53:31.144Z,9.15
2023-03-15T14:55:57.865Z,8.68
2023-03-15T14:58:24.662Z,9.38
2023-03-15T15:00:54.272Z,10.45
2023-03-15T15:03:29.841Z,10.20
2023-03-15T15:05:57.003Z,9.98
2023-03-15T15:08:23.915Z,9.77
2023-03-15T15:10:53.391Z,9.55
2023-03-15T15:13:31.532Z,8.95
2023-03-15T15:15:58.384Z,9.20
2023-03-15T15:18:27.105Z,8.95
2023-03-15T15:20:59.924Z,8.75
2023-03-15T15:23:32.077Z,8.15
2023-03-15T15:26:02.061Z,8.23
2023-03-15T15:28:36.052Z,7.88
2023-03-15T15:31:07.299Z,8.60
2023-03-15T15:33:34.397Z,7.80
2023-03-15T15:36:02.010Z,8.48
2023-03-15T15:38:38.293Z,7.55
2023-03-15T15:41:06.683Z,8.73
2023-03-15T15:43:33.799Z,7.43
2023-03-15T15:46:01.941Z,7.43
2023-03-15T15:48:28.802Z,7.22
2023-03-15T15:50:55.710Z,7.10
2023-03-15T15:53:22.963Z,6.90
2023-03-15T15:55:49.822Z,7.00
2023-03-15T15:58:17.584Z,7.43
2023-03-15T16:00:44.469Z,8.40
2023-03-15T16:03:16.257Z,7.72
2023-03-15T16:05:43.168Z,7.18
2023-03-15T16:08:21.829Z,7.10
2023-03-15T16:10:48.697Z,7.45
2023-03-15T16:13:15.605Z,7.32
2023-03-15T16:15:42.473Z,7.00
2023-03-15T16:18:13.116Z,7.78
2023-03-15T16:20:41.532Z,7.35
2023-03-15T16:23:24.067Z,7.05
2023-03-15T16:25:55.475Z,6.95
2023-03-15T16:28:23.808Z,7.55
2023-03-15T16:30:51.225Z,6.90
2023-03-15T16:33:20.470Z,8.13
2023-03-15T16:35:53.220Z,7.90
2023-03-15T16:38:24.505Z,7.30
2023-03-15T16:40:53.193Z,7.65
2023-03-15T16:43:20.778Z,8.00
2023-03-15T16:45:47.634Z,9.02
2023-03-15T16:48:14.795Z,8.57
2023-03-15T16:50:43.188Z,9.15
2023-03-15T16:53:12.533Z,9.20
2023-03-15T16:55:39.759Z,8.88
2023-03-15T16:58:19.037Z,10.10
2023-03-15T17:00:48.040Z,9.80
2023-03-15T17:03:16.686Z,10.10
2023-03-15T17:05:46.227Z,10.68
2023-03-15T17:08:18.707Z,14.02
2023-03-15T17:10:45.723Z,13.98
2023-03-15T17:13:15.469Z,14.77
2023-03-15T17:15:42.705Z,16.27
2023-03-15T17:18:30.036Z,13.98
2023-03-15T17:20:56.826Z,19.33
2023-03-15T17:23:24.284Z,16.67
2023-03-15T17:25:51.622Z,15.45
2023-03-15T17:28:18.471Z,16.13
2023-03-15T17:30:45.276Z,15.90
2023-03-15T17:33:12.298Z,15.10
2023-03-15T17:35:47.202Z,16.70
2023-03-15T17:38:21.996Z,15.82
2023-03-15T17:40:48.842Z,15.52
2023-03-15T17:43:17.000Z,16.75
2023-03-15T17:45:44.084Z,15.98
2023-03-15T17:48:11.091Z,15.63
2023-03-15T17:50:38.411Z,16.00
2023-03-15T17:53:18.618Z,15.75
2023-03-15T17:55:47.890Z,16.52
2023-03-15T17:58:20.816Z,16.27
2023-03-15T18:00:49.629Z,16.42
2023-03-15T18:03:17.222Z,16.52
2023-03-15T18:05:44.870Z,16.75
2023-03-15T18:08:18.312Z,15.98
2023-03-15T18:10:46.455Z,15.82
2023-03-15T18:13:21.562Z,16.58
2023-03-15T18:15:49.740Z,15.77
2023-03-15T18:18:16.949Z,18.48
2023-03-15T18:20:45.223Z,18.60
2023-03-15T18:23:14.516Z,25.13
2023-03-15T18:25:41.789Z,18.48
2023-03-15T18:28:08.573Z,18.00
2023-03-15T18:30:35.485Z,16.60
2023-03-15T18:33:03.772Z,16.70
2023-03-15T18:35:33.747Z,16.92
2023-03-15T18:38:00.921Z,16.05
2023-03-15T18:40:30.568Z,14.85
2023-03-15T18:42:58.665Z,15.40
2023-03-15T18:45:32.049Z,16.08
2023-03-15T18:48:01.950Z,15.80
2023-03-15T18:50:29.232Z,15.05
2023-03-15T18:52:56.717Z,15.65
2023-03-15T18:55:23.985Z,16.50
2023-03-15T18:57:52.705Z,17.30
2023-03-15T19:00:27.075Z,16.58
2023-03-15T19:02:56.778Z,16.38
2023-03-15T19:05:24.425Z,16.50
2023-03-15T19:07:51.317Z,15.80
2023-03-15T19:10:19.841Z,17.00
2023-03-15T19:12:48.150Z,14.70
2023-03-15T19:15:17.490Z,17.23
2023-03-15T19:17:46.938Z,17.75
2023-03-15T19:20:16.166Z,16.73
2023-03-15T19:22:43.052Z,16.77
2023-03-15T19:25:13.830Z,16.70
2023-03-15T19:27:42.314Z,17.13
2023-03-15T19:30:12.050Z,17.35
2023-03-15T19:32:40.545Z,16.92
2023-03-15T19:35:07.828Z,16.40
2023-03-15T19:37:35.594Z,15.77
2023-03-15T19:40:02.848Z,17.17
2023-03-15T19:42:29.741Z,17.15
2023-03-15T19:44:56.509Z,16.52
2023-03-15T19:47:23.295Z,16.75
2023-03-15T19:49:50.562Z,16.20
2023-03-15T19:52:17.400Z,16.50
2023-03-15T19:54:44.152Z,16.27
2023-03-15T19:57:11.844Z,16.88
2023-03-15T19:59:40.969Z,16.45
2023-03-15T20:02:11.020Z,17.13
2023-03-15T20:04:38.148Z,17.15
2023-03-15T20:07:06.624Z,17.92
2023-03-15T20:09:38.965Z,16.63
2023-03-15T20:12:07.476Z,18.67
2023-03-15T20:14:34.774Z,16.92
2023-03-15T20:17:01.934Z,18.25
2023-03-15T20:19:29.263Z,16.73
2023-03-15T20:21:57.249Z,18.00
2023-03-15T20:24:26.105Z,17.67
2023-03-15T20:26:53.552Z,17.38
2023-03-15T20:29:22.537Z,17.85
2023-03-15T20:31:50.366Z,19.63
2023-03-15T20:34:18.923Z,17.02
2023-03-15T20:36:45.770Z,17.35
2023-03-15T20:39:12.588Z,17.38
2023-03-15T20:41:39.531Z,17.25
2023-03-15T20:44:06.688Z,18.05
2023-03-15T20:46:34.510Z,18.00
2023-03-15T20:49:01.494Z,17.92
2023-03-15T20:51:28.476Z,17.20
2023-03-15T20:53:55.286Z,17.15
2023-03-15T20:56:22.138Z,18.80
2023-03-15T20:58:49.337Z,18.23
2023-03-15T21:01:17.080Z,18.75
2023-03-15T21:03:45.310Z,19.70
2023-03-15T21:06:13.398Z,19.60
2023-03-15T21:08:41.609Z,19.60
2023-03-15T21:11:08.676Z,19.63
2023-03-15T21:13:35.704Z,19.60
2023-03-15T21:16:04.455Z,18.80
2023-03-15T21:18:33.726Z,20.80
2023-03-15T21:21:03.418Z,19.65
2023-03-15T21:23:34.160Z,21.25
2023-03-15T21:26:03.502Z,18.55
2023-03-15T21:28:30.627Z,18.40
2023-03-15T21:30:57.952Z,17.13
2023-03-15T21:33:26.698Z,17.15
2023-03-15T21:35:56.040Z,17.58
2023-03-15T21:38:23.170Z,17.35
2023-03-15T21:40:59.313Z,18.52
2023-03-15T21:43:27.983Z,18.35
2023-03-15T21:45:55.176Z,16.48
2023-03-15T21:48:22.056Z,17.10
2023-03-15T21:50:53.588Z,17.77
2023-03-15T21:53:21.325Z,17.20
2023-03-15T21:55:48.173Z,17.13
2023-03-15T21:58:15.067Z,16.63
2023-03-15T22:00:42.792Z,15.90
2023-03-15T22:03:09.696Z,16.50
2023-03-15T22:05:36.725Z,16.65
2023-03-15T22:08:03.774Z,16.38
2023-03-15T22:10:33.727Z,16.20
2023-03-15T22:13:00.502Z,17.88
2023-03-15T22:15:27.398Z,17.85
2023-03-15T22:17:54.982Z,17.48
2023-03-15T22:20:22.205Z,17.52
2023-03-15T22:22:49.312Z,16.70
2023-03-15T22:25:16.504Z,18.85
2023-03-15T22:27:43.398Z,18.05
2023-03-15T22:30:13.836Z,18.65
2023-03-15T22:32:45.003Z,18.77
2023-03-15T22:35:16.079Z,19.05
2023-03-15T22:37:43.496Z,18.75
2023-03-15T22:40:14.205Z,18.50
2023-03-15T22:42:42.056Z,18.60
2023-03-15T22:45:09.374Z,19.38
2023-03-15T22:47:36.264Z,18.60
2023-03-15T22:50:03.529Z,19.10
2023-03-15T22:52:30.403Z,18.50
2023-03-15T22:54:57.207Z,19.80
2023-03-15T22:57:24.218Z,19.27
2023-03-15T22:59:51.241Z,19.17
2023-03-15T23:02:18.149Z,19.20
2023-03-15T23:04:45.956Z,19.20
2023-03-15T23:07:13.440Z,16.65
2023-03-15T23:09:40.338Z,16.05
2023-03-15T23:12:07.353Z,17.42
2023-03-15T23:14:34.297Z,15.93
2023-03-15T23:17:04.354Z,15.15
2023-03-15T23:19:35.261Z,15.55
2023-03-15T23:22:04.509Z,15.55
2023-03-15T23:24:34.036Z,14.43
2023-03-15T23:27:03.498Z,14.88
2023-03-15T23:29:32.559Z,14.15
2023-03-15T23:32:01.519Z,13.90
2023-03-15T23:34:28.359Z,14.20
2023-03-15T23:36:55.282Z,14.73
2023-03-15T23:39:22.139Z,14.63
2023-03-15T23:41:49.093Z,14.25
2023-03-15T23:44:16.267Z,13.98
2023-03-15T23:46:43.439Z,14.77
2023-03-15T23:49:10.459Z,13.35
2023-03-15T23:51:37.178Z,14.38
2023-03-15T23:54:04.063Z,14.45
2023-03-15T23:56:30.964Z,13.88
2023-03-15T23:58:58.725Z,14.15
